Egyptian Hills, Illinois
Current Conditions -  °F | °C
As of 10:53 AM on Saturday 20 Dec 2014 (Local Time) from KMWA Reporting Station
Overcast Overcast  
Wind Chill: 32°   Ceiling: 3800
Heat Index: 37°   Visibility: 15mi
Dew Point: 30°   Wind: 7mph
Humidity: 75%   Direction: 110°ESE
Pressure: 30.3"   Gusts: NA
Location:  37.6398°N, 88.8751°W
Report Text: KMWA 201653Z 11006KT 15SM BKN038 OVC045 03/M01 A3030 RMK BINOVC
Loading
Personal Weather Stations






























Interactive Weather Map New forecast layout! Learn more

10-Day Weather Forecast

Advertisements
Track Severe Weather on mobile